createdAt,value
2023-04-20T00:01:54.536Z,61.30
2023-04-20T00:04:22.267Z,61.00
2023-04-20T00:06:51.700Z,61.10
2023-04-20T00:09:23.664Z,61.20
2023-04-20T00:11:51.438Z,61.20
2023-04-20T00:14:19.792Z,61.10
2023-04-20T00:16:47.801Z,61.10
2023-04-20T00:19:15.897Z,61.00
2023-04-20T00:21:43.793Z,61.00
2023-04-20T00:24:11.500Z,60.90
2023-04-20T00:26:40.599Z,61.10
2023-04-20T00:29:08.416Z,61.00
2023-04-20T00:31:36.165Z,61.00
2023-04-20T00:34:03.940Z,61.00
2023-04-20T00:36:31.746Z,60.90
2023-04-20T00:39:01.125Z,60.90
2023-04-20T00:41:28.898Z,60.70
2023-04-20T00:43:57.975Z,60.70
2023-04-20T00:46:25.893Z,61.10
2023-04-20T00:48:55.360Z,61.50
2023-04-20T00:51:23.968Z,61.70
2023-04-20T00:53:51.841Z,62.00
2023-04-20T00:56:20.233Z,62.40
2023-04-20T00:58:48.029Z,62.60
2023-04-20T01:01:18.365Z,63.00
2023-04-20T01:03:46.894Z,63.10
2023-04-20T01:06:15.513Z,63.00
2023-04-20T01:08:50.398Z,63.10
2023-04-20T01:11:18.661Z,63.20
2023-04-20T01:13:46.393Z,63.30
2023-04-20T01:16:14.405Z,63.40
2023-04-20T01:18:48.514Z,63.50
2023-04-20T01:21:18.188Z,63.50
2023-04-20T01:23:47.634Z,63.60
2023-04-20T01:26:17.179Z,63.60
2023-04-20T01:28:45.381Z,63.60
2023-04-20T01:31:14.328Z,63.50
2023-04-20T01:33:42.353Z,63.50
2023-04-20T01:36:10.906Z,63.60
2023-04-20T01:38:38.973Z,63.60
2023-04-20T01:41:09.651Z,63.60
2023-04-20T01:43:38.567Z,63.70
2023-04-20T01:46:06.747Z,63.60
2023-04-20T01:48:34.892Z,63.70
2023-04-20T01:51:02.743Z,63.70
2023-04-20T01:53:30.476Z,63.80
2023-04-20T01:55:58.241Z,63.80
2023-04-20T01:58:27.588Z,63.70
2023-04-20T02:00:55.388Z,63.70
2023-04-20T02:03:23.373Z,63.50
2023-04-20T02:05:51.232Z,63.50
2023-04-20T02:08:19.276Z,63.60
2023-04-20T02:10:47.049Z,63.50
2023-04-20T02:13:15.853Z,63.50
2023-04-20T02:15:45.194Z,63.70
2023-04-20T02:18:13.206Z,63.80
2023-04-20T02:20:41.005Z,63.90
2023-04-20T02:23:09.060Z,63.90
2023-04-20T02:25:36.934Z,63.90
2023-04-20T02:28:05.112Z,63.90
2023-04-20T02:30:32.905Z,63.70
2023-04-20T02:33:02.057Z,63.70
2023-04-20T02:35:29.856Z,63.70
2023-04-20T02:37:57.921Z,63.80
2023-04-20T02:40:25.595Z,63.90
2023-04-20T02:42:53.320Z,64.00
2023-04-20T02:45:21.440Z,64.20
2023-04-20T02:47:49.278Z,64.20
2023-04-20T02:50:18.577Z,64.20
2023-04-20T02:52:46.333Z,64.20
2023-04-20T02:55:14.369Z,64.20
2023-04-20T02:57:42.697Z,64.20
2023-04-20T03:00:13.660Z,64.30
2023-04-20T03:02:41.586Z,64.40
2023-04-20T03:05:10.167Z,64.40
2023-04-20T03:07:39.260Z,64.30
2023-04-20T03:10:08.520Z,64.30
2023-04-20T03:12:36.391Z,64.30
2023-04-20T03:15:06.216Z,65.10
2023-04-20T03:17:34.181Z,65.10
2023-04-20T03:20:02.037Z,64.40
2023-04-20T03:22:29.786Z,64.50
2023-04-20T03:25:01.748Z,64.50
2023-04-20T03:27:29.489Z,65.30
2023-04-20T03:29:57.532Z,64.50
2023-04-20T03:32:25.547Z,64.60
2023-04-20T03:34:53.306Z,64.60
2023-04-20T03:37:21.082Z,64.60
2023-04-20T03:39:48.840Z,64.60
2023-04-20T03:42:17.930Z,64.50
2023-04-20T03:44:45.695Z,64.40
2023-04-20T03:47:13.472Z,64.40
2023-04-20T03:49:41.266Z,64.30
2023-04-20T03:52:09.093Z,64.30
2023-04-20T03:54:37.120Z,64.30
2023-04-20T03:57:06.043Z,64.30
2023-04-20T03:59:35.176Z,64.40
2023-04-20T04:02:05.814Z,64.50
2023-04-20T04:04:33.965Z,64.70
2023-04-20T04:07:01.969Z,64.80
2023-04-20T04:09:29.707Z,64.80
2023-04-20T04:11:57.846Z,64.80
2023-04-20T04:14:25.563Z,64.70
2023-04-20T04:16:54.663Z,64.80
2023-04-20T04:19:22.447Z,64.80
2023-04-20T04:21:50.217Z,64.80
2023-04-20T04:24:17.993Z,65.00
2023-04-20T04:26:45.787Z,65.00
2023-04-20T04:29:13.612Z,65.10
2023-04-20T04:31:41.427Z,65.20
2023-04-20T04:34:10.754Z,65.30
2023-04-20T04:36:38.539Z,65.40
2023-04-20T04:39:06.291Z,65.40
2023-04-20T04:41:34.038Z,65.40
2023-04-20T04:44:01.750Z,65.40
2023-04-20T04:46:30.005Z,65.40
2023-04-20T04:49:00.775Z,65.70
2023-04-20T04:51:29.858Z,65.40
2023-04-20T04:53:57.614Z,65.50
2023-04-20T04:56:25.850Z,65.50
2023-04-20T04:58:53.546Z,65.40
2023-04-20T05:01:21.373Z,65.40
2023-04-20T05:03:49.242Z,65.40
2023-04-20T05:06:17.030Z,65.40
2023-04-20T05:08:46.851Z,65.40
2023-04-20T05:11:14.724Z,65.40
2023-04-20T05:13:42.566Z,65.40
2023-04-20T05:16:10.377Z,65.50
2023-04-20T05:18:38.245Z,65.40
2023-04-20T05:21:06.007Z,65.50
2023-04-20T05:23:33.828Z,65.70
2023-04-20T05:26:02.935Z,65.70
2023-04-20T05:28:30.818Z,65.60
2023-04-20T05:30:58.564Z,65.70
2023-04-20T05:33:26.392Z,65.60
2023-04-20T05:35:57.066Z,65.50
2023-04-20T05:38:25.060Z,65.50
2023-04-20T05:40:53.081Z,65.50
2023-04-20T05:43:22.294Z,65.60
2023-04-20T05:45:50.264Z,65.70
2023-04-20T05:48:17.965Z,65.70
2023-04-20T05:50:45.646Z,65.70
2023-04-20T05:53:13.494Z,65.70
2023-04-20T05:55:41.565Z,65.70
2023-04-20T05:58:09.341Z,65.70
2023-04-20T06:00:38.766Z,65.80
2023-04-20T06:03:06.698Z,65.80
2023-04-20T06:05:34.705Z,65.90
2023-04-20T06:08:02.536Z,65.90
2023-04-20T06:10:32.364Z,65.90
2023-04-20T06:13:00.185Z,65.90
2023-04-20T06:15:27.922Z,65.90
2023-04-20T06:17:57.271Z,66.00
2023-04-20T06:20:25.145Z,66.00
2023-04-20T06:22:53.086Z,66.10
2023-04-20T06:25:20.969Z,66.00
2023-04-20T06:27:50.211Z,66.10
2023-04-20T06:30:19.779Z,66.10
2023-04-20T06:32:47.568Z,66.10
2023-04-20T06:35:19.823Z,66.10
2023-04-20T06:37:47.583Z,66.20
2023-04-20T06:40:16.231Z,66.10
2023-04-20T06:42:44.225Z,66.10
2023-04-20T06:45:12.542Z,66.10
2023-04-20T06:47:40.361Z,66.20
2023-04-20T06:50:10.878Z,66.20
2023-04-20T06:52:41.272Z,66.20
2023-04-20T06:55:10.230Z,66.20
2023-04-20T06:57:38.640Z,66.30
2023-04-20T07:00:09.663Z,66.20
2023-04-20T07:02:44.882Z,66.20
2023-04-20T07:05:12.855Z,66.30
2023-04-20T07:07:42.349Z,66.30
2023-04-20T07:10:12.274Z,66.30
2023-04-20T07:12:42.869Z,66.40
2023-04-20T07:15:12.375Z,66.40
2023-04-20T07:17:40.427Z,66.50
2023-04-20T07:20:09.476Z,66.50
2023-04-20T07:22:37.907Z,66.50
2023-04-20T07:25:09.012Z,66.50
2023-04-20T07:27:37.568Z,66.50
2023-04-20T07:30:06.754Z,66.60
2023-04-20T07:32:34.705Z,66.60
2023-04-20T07:35:03.317Z,66.70
2023-04-20T07:37:31.710Z,66.70
2023-04-20T07:39:59.503Z,66.80
2023-04-20T07:42:28.657Z,66.80
2023-04-20T07:44:56.405Z,66.80
2023-04-20T07:47:24.212Z,66.80
2023-04-20T07:49:52.078Z,67.00
2023-04-20T07:52:19.821Z,67.00
2023-04-20T07:54:47.773Z,67.00
2023-04-20T07:57:15.657Z,67.90
2023-04-20T07:59:47.358Z,67.10
2023-04-20T08:02:15.285Z,67.10
2023-04-20T08:04:44.456Z,67.10
2023-04-20T08:07:12.612Z,67.10
2023-04-20T08:09:40.493Z,67.30
2023-04-20T08:12:08.781Z,67.30
2023-04-20T08:14:38.110Z,67.30
2023-04-20T08:17:07.164Z,67.40
2023-04-20T08:19:34.909Z,67.40
2023-04-20T08:22:03.450Z,67.50
2023-04-20T08:24:31.395Z,67.50
2023-04-20T08:26:59.435Z,67.50
2023-04-20T08:29:27.319Z,67.50
2023-04-20T08:31:55.376Z,67.50
2023-04-20T08:34:24.806Z,67.40
2023-04-20T08:36:52.633Z,67.40
2023-04-20T08:39:24.403Z,67.40
2023-04-20T08:41:53.938Z,67.40
2023-04-20T08:44:21.841Z,67.40
2023-04-20T08:46:50.666Z,67.40
2023-04-20T08:49:19.881Z,67.50
2023-04-20T08:51:49.719Z,67.60
2023-04-20T08:54:17.718Z,67.70
2023-04-20T08:56:47.304Z,67.70
2023-04-20T08:59:15.570Z,67.70
2023-04-20T09:01:44.025Z,67.70
2023-04-20T09:04:20.048Z,67.70
2023-04-20T09:06:53.039Z,67.90
2023-04-20T09:09:22.542Z,67.90
2023-04-20T09:12:02.238Z,67.70
2023-04-20T09:14:30.033Z,67.60
2023-04-20T09:17:02.066Z,67.50
2023-04-20T09:19:30.956Z,67.50
2023-04-20T09:22:03.654Z,67.50
2023-04-20T09:24:33.403Z,67.60
2023-04-20T09:27:01.984Z,67.70
2023-04-20T09:29:30.212Z,67.70
2023-04-20T09:31:58.093Z,67.70
2023-04-20T09:34:26.733Z,67.70
2023-04-20T09:36:55.861Z,67.80
2023-04-20T09:39:27.194Z,67.90
2023-04-20T09:41:58.416Z,67.80
2023-04-20T09:44:26.201Z,67.80
2023-04-20T09:46:54.283Z,68.10
2023-04-20T09:49:22.573Z,68.40
2023-04-20T09:51:50.841Z,68.40
2023-04-20T09:54:18.798Z,68.40
2023-04-20T09:56:49.324Z,68.30
2023-04-20T09:59:19.956Z,68.30
2023-04-20T10:01:47.804Z,68.20
2023-04-20T10:04:17.128Z,68.30
2023-04-20T10:06:53.996Z,68.40
2023-04-20T10:09:23.674Z,68.60
2023-04-20T10:11:55.169Z,68.60
2023-04-20T10:14:25.979Z,68.60
2023-04-20T10:17:01.944Z,68.60
2023-04-20T10:19:45.430Z,68.60
2023-04-20T10:22:14.916Z,68.70
2023-04-20T10:24:42.640Z,68.80
2023-04-20T10:27:22.167Z,68.90
2023-04-20T10:29:50.147Z,69.00
2023-04-20T10:32:25.594Z,69.00
2023-04-20T10:35:04.668Z,69.20
2023-04-20T10:37:32.599Z,69.30
2023-04-20T10:40:00.901Z,69.30
2023-04-20T10:42:30.489Z,69.30
2023-04-20T10:44:58.302Z,69.50
2023-04-20T10:47:30.580Z,69.40
2023-04-20T10:50:07.833Z,69.60
2023-04-20T10:52:36.581Z,69.70
2023-04-20T10:55:05.214Z,68.70
2023-04-20T10:57:34.744Z,68.60
2023-04-20T11:00:16.830Z,68.30
2023-04-20T11:02:50.347Z,68.30
2023-04-20T11:05:19.187Z,68.30
2023-04-20T11:07:54.211Z,68.30
2023-04-20T11:10:23.182Z,69.40
2023-04-20T11:12:53.132Z,69.50
2023-04-20T11:15:31.535Z,69.70
2023-04-20T11:18:07.671Z,69.80
2023-04-20T11:20:36.289Z,69.70
2023-04-20T11:23:05.841Z,69.70
2023-04-20T11:25:33.630Z,69.60
2023-04-20T11:28:08.867Z,69.50
2023-04-20T11:30:41.141Z,69.60
2023-04-20T11:33:09.320Z,69.60
2023-04-20T11:35:38.379Z,69.60
2023-04-20T11:38:06.407Z,69.60
2023-04-20T11:40:34.346Z,69.60
2023-04-20T11:43:02.250Z,69.70
2023-04-20T11:45:35.727Z,69.70
2023-04-20T11:48:04.619Z,69.70
2023-04-20T11:50:32.502Z,69.60
2023-04-20T11:53:00.305Z,69.70
2023-04-20T11:55:28.325Z,69.70
2023-04-20T11:57:56.035Z,69.70
2023-04-20T12:00:24.410Z,69.70
2023-04-20T12:02:53.904Z,69.60
2023-04-20T12:05:21.771Z,69.80
2023-04-20T12:07:49.554Z,69.80
2023-04-20T12:10:17.358Z,69.80
2023-04-20T12:12:45.082Z,69.90
2023-04-20T12:15:13.546Z,69.70
2023-04-20T12:17:41.613Z,69.80
2023-04-20T12:20:12.686Z,69.90
2023-04-20T12:22:41.081Z,69.80
2023-04-20T12:25:09.454Z,69.90
2023-04-20T12:27:37.380Z,69.90
2023-04-20T12:30:05.994Z,69.90
2023-04-20T12:32:33.770Z,69.90
2023-04-20T12:35:01.666Z,69.90
2023-04-20T12:37:30.859Z,69.80
2023-04-20T12:39:58.587Z,69.60
2023-04-20T12:42:26.432Z,69.50
2023-04-20T12:44:54.677Z,69.60
2023-04-20T12:47:22.606Z,69.50
2023-04-20T12:49:50.428Z,69.50
2023-04-20T12:52:18.143Z,69.40
2023-04-20T12:54:47.226Z,69.40
2023-04-20T12:57:15.096Z,69.30
2023-04-20T12:59:45.272Z,69.10
2023-04-20T13:02:13.242Z,69.10
2023-04-20T13:04:41.301Z,69.20
2023-04-20T13:07:09.322Z,69.30
2023-04-20T13:09:37.030Z,69.40
2023-04-20T13:12:06.382Z,69.40
2023-04-20T13:14:34.100Z,69.50
2023-04-20T13:17:02.487Z,69.60
2023-04-20T13:19:31.945Z,69.80
2023-04-20T13:22:00.137Z,69.80
2023-04-20T13:24:27.913Z,69.80
2023-04-20T13:26:57.427Z,69.60
2023-04-20T13:29:27.082Z,69.40
2023-04-20T13:31:54.866Z,69.40
2023-04-20T13:34:22.844Z,69.30
2023-04-20T13:36:51.727Z,69.30
2023-04-20T13:39:20.756Z,69.50
2023-04-20T13:41:49.233Z,69.60
2023-04-20T13:44:17.263Z,69.60
2023-04-20T13:46:47.963Z,69.60
2023-04-20T13:49:16.786Z,68.70
2023-04-20T13:51:44.622Z,68.70
2023-04-20T13:54:12.365Z,68.80
2023-04-20T13:56:40.250Z,68.80
2023-04-20T13:59:23.665Z,68.70
2023-04-20T14:01:52.808Z,68.70
2023-04-20T14:04:20.813Z,68.90
2023-04-20T14:06:49.105Z,69.00
2023-04-20T14:09:16.888Z,69.10
2023-04-20T14:11:44.773Z,69.20
2023-04-20T14:14:12.518Z,69.20
2023-04-20T14:16:44.920Z,69.30
2023-04-20T14:19:14.007Z,69.30
2023-04-20T14:21:44.047Z,69.10
2023-04-20T14:24:12.427Z,69.10
2023-04-20T14:26:40.511Z,69.10
2023-04-20T14:29:08.349Z,69.20
2023-04-20T14:31:37.212Z,69.20
2023-04-20T14:34:05.451Z,69.40
2023-04-20T14:36:34.527Z,69.50
2023-04-20T14:39:02.750Z,69.60
2023-04-20T14:41:32.973Z,69.60
2023-04-20T14:44:01.265Z,69.60
2023-04-20T14:46:29.340Z,69.60
2023-04-20T14:48:57.059Z,69.60
2023-04-20T14:51:25.050Z,69.80
2023-04-20T14:53:54.103Z,69.90
2023-04-20T14:56:21.827Z,69.90
2023-04-20T14:58:49.733Z,70.00
2023-04-20T15:01:18.106Z,70.00
2023-04-20T15:03:45.936Z,70.20
2023-04-20T15:06:13.759Z,70.30
2023-04-20T15:08:41.505Z,70.20
2023-04-20T15:11:10.743Z,70.30
2023-04-20T15:13:41.050Z,70.20
2023-04-20T15:16:09.297Z,70.30
2023-04-20T15:18:37.076Z,70.40
2023-04-20T15:21:04.927Z,70.50
2023-04-20T15:23:32.835Z,70.40
2023-04-20T15:26:00.754Z,70.40
2023-04-20T15:28:29.992Z,70.50
2023-04-20T15:30:58.068Z,70.50
2023-04-20T15:33:25.775Z,70.50
2023-04-20T15:35:53.518Z,70.40
2023-04-20T15:38:21.222Z,70.30
2023-04-20T15:40:49.802Z,70.30
2023-04-20T15:43:17.621Z,70.30
2023-04-20T15:45:46.730Z,70.30
2023-04-20T15:48:14.458Z,70.30
2023-04-20T15:50:42.185Z,70.30
2023-04-20T15:53:09.929Z,70.20
2023-04-20T15:55:39.334Z,70.40
2023-04-20T15:58:07.158Z,70.40
2023-04-20T16:00:35.204Z,70.40
2023-04-20T16:03:04.510Z,70.50
2023-04-20T16:05:32.829Z,70.50
2023-04-20T16:08:00.941Z,70.40
2023-04-20T16:10:28.735Z,70.50
2023-04-20T16:12:56.918Z,70.60
2023-04-20T16:15:25.574Z,70.80
2023-04-20T16:17:53.886Z,70.80
2023-04-20T16:20:23.546Z,70.80
2023-04-20T16:22:51.218Z,70.80
2023-04-20T16:25:24.878Z,70.80
2023-04-20T16:27:52.947Z,70.80
2023-04-20T16:30:21.736Z,70.80
2023-04-20T16:32:52.738Z,70.80
2023-04-20T16:35:26.847Z,70.90
2023-04-20T16:37:57.417Z,70.90
2023-04-20T16:40:26.159Z,71.00
2023-04-20T16:42:54.148Z,70.90
2023-04-20T16:45:24.089Z,70.90
2023-04-20T16:47:52.363Z,70.90
2023-04-20T16:50:20.502Z,70.80
2023-04-20T16:52:51.150Z,70.80
2023-04-20T16:55:19.455Z,70.80
2023-04-20T16:57:47.505Z,70.70
2023-04-20T17:00:16.534Z,70.70
2023-04-20T17:02:44.511Z,70.70
2023-04-20T17:05:13.193Z,70.60
2023-04-20T17:07:40.924Z,70.60
2023-04-20T17:10:11.714Z,70.60
2023-04-20T17:12:41.565Z,70.60
2023-04-20T17:15:13.144Z,70.40
2023-04-20T17:17:41.068Z,70.40
2023-04-20T17:20:10.787Z,70.40
2023-04-20T17:22:38.799Z,70.40
2023-04-20T17:25:12.490Z,70.30
2023-04-20T17:27:42.506Z,70.30
2023-04-20T17:30:17.344Z,70.20
2023-04-20T17:32:47.535Z,70.10
2023-04-20T17:35:19.991Z,70.20
2023-04-20T17:37:51.398Z,70.10
2023-04-20T17:40:19.769Z,70.30
2023-04-20T17:42:51.396Z,70.10
2023-04-20T17:45:19.765Z,70.10
2023-04-20T17:47:48.907Z,70.10
2023-04-20T17:50:17.503Z,70.20
2023-04-20T17:52:45.315Z,70.10
2023-04-20T17:55:17.281Z,70.00
2023-04-20T17:57:45.149Z,70.10
2023-04-20T18:00:17.462Z,70.00
2023-04-20T18:02:46.074Z,70.80
2023-04-20T18:05:14.212Z,70.10
2023-04-20T18:07:44.095Z,69.90
2023-04-20T18:10:13.466Z,70.00
2023-04-20T18:12:48.544Z,70.00
2023-04-20T18:15:17.649Z,70.00
2023-04-20T18:17:47.820Z,70.00
2023-04-20T18:20:19.135Z,70.00
2023-04-20T18:22:50.813Z,70.00
2023-04-20T18:25:19.404Z,70.00
2023-04-20T18:27:48.813Z,69.90
2023-04-20T18:30:19.992Z,69.90
2023-04-20T18:32:52.119Z,69.80
2023-04-20T18:35:19.881Z,69.80
2023-04-20T18:37:47.618Z,69.70
2023-04-20T18:40:16.543Z,70.80
2023-04-20T18:42:44.846Z,70.80
2023-04-20T18:45:14.136Z,70.90
2023-04-20T18:47:43.769Z,70.80
2023-04-20T18:50:12.677Z,70.80
2023-04-20T18:52:40.776Z,70.80
2023-04-20T18:55:09.653Z,70.80
2023-04-20T18:57:38.157Z,70.70
2023-04-20T19:00:10.071Z,70.70
2023-04-20T19:02:41.177Z,71.10
2023-04-20T19:05:13.327Z,70.80
2023-04-20T19:07:41.107Z,70.80
2023-04-20T19:10:13.321Z,70.80
2023-04-20T19:12:41.417Z,70.80
2023-04-20T19:15:13.868Z,70.70
2023-04-20T19:17:42.911Z,70.70
2023-04-20T19:20:16.021Z,70.70
2023-04-20T19:22:43.939Z,70.60
2023-04-20T19:25:11.670Z,70.60
2023-04-20T19:27:39.654Z,70.60
2023-04-20T19:30:09.257Z,70.60
2023-04-20T19:32:37.472Z,70.60
2023-04-20T19:35:05.826Z,70.60
2023-04-20T19:37:35.885Z,70.60
2023-04-20T19:40:05.577Z,70.50
2023-04-20T19:42:33.313Z,70.60
2023-04-20T19:45:01.075Z,70.60
2023-04-20T19:47:28.990Z,70.70
2023-04-20T19:49:56.715Z,70.70
2023-04-20T19:52:24.431Z,70.70
2023-04-20T19:54:53.511Z,70.70
2023-04-20T19:57:21.370Z,70.70
2023-04-20T19:59:49.100Z,70.70
2023-04-20T20:02:16.871Z,70.60
2023-04-20T20:04:44.902Z,70.60
2023-04-20T20:07:13.407Z,70.50
2023-04-20T20:09:41.260Z,70.60
2023-04-20T20:12:10.817Z,70.60
2023-04-20T20:14:38.590Z,70.60
2023-04-20T20:17:06.589Z,70.50
2023-04-20T20:19:34.564Z,71.10
2023-04-20T20:22:02.311Z,70.60
2023-04-20T20:24:30.095Z,70.60
2023-04-20T20:26:58.683Z,70.50
2023-04-20T20:29:27.823Z,70.60
2023-04-20T20:31:55.671Z,70.60
2023-04-20T20:34:23.405Z,70.70
2023-04-20T20:36:51.345Z,70.50
2023-04-20T20:39:19.332Z,70.70
2023-04-20T20:41:47.584Z,70.60
2023-04-20T20:44:15.869Z,70.60
2023-04-20T20:46:45.003Z,70.60
2023-04-20T20:49:12.711Z,70.60
2023-04-20T20:51:41.405Z,70.70
2023-04-20T20:54:09.245Z,70.80
2023-04-20T20:56:37.033Z,70.80
2023-04-20T20:59:04.757Z,70.80
2023-04-20T21:01:32.558Z,70.80
2023-04-20T21:04:01.682Z,70.80
2023-04-20T21:06:29.707Z,70.70
2023-04-20T21:08:57.623Z,70.70
2023-04-20T21:11:25.421Z,70.80
2023-04-20T21:13:54.306Z,70.70
2023-04-20T21:16:22.067Z,70.70
2023-04-20T21:18:49.975Z,70.70
2023-04-20T21:21:19.051Z,70.70
2023-04-20T21:23:46.784Z,70.70
2023-04-20T21:26:14.556Z,70.70
2023-04-20T21:28:42.320Z,70.90
2023-04-20T21:31:10.145Z,70.80
2023-04-20T21:33:37.927Z,70.90
2023-04-20T21:36:06.351Z,71.00
2023-04-20T21:38:35.645Z,71.20
2023-04-20T21:41:03.597Z,71.20
2023-04-20T21:43:31.314Z,71.30
2023-04-20T21:45:59.065Z,71.30
2023-04-20T21:48:26.789Z,71.20
2023-04-20T21:50:54.697Z,71.30
2023-04-20T21:53:22.494Z,71.30
2023-04-20T21:55:51.760Z,71.30
2023-04-20T21:58:19.428Z,71.20
2023-04-20T22:00:47.538Z,71.20
2023-04-20T22:03:15.491Z,71.20
2023-04-20T22:05:43.671Z,71.30
2023-04-20T22:08:13.762Z,71.30
2023-04-20T22:10:41.460Z,71.30
2023-04-20T22:13:10.603Z,71.20
2023-04-20T22:15:38.415Z,71.90
2023-04-20T22:18:06.628Z,71.10
2023-04-20T22:20:34.645Z,71.10
2023-04-20T22:23:02.374Z,71.00
2023-04-20T22:25:30.149Z,71.10
2023-04-20T22:27:57.991Z,71.10
2023-04-20T22:30:27.292Z,71.00
2023-04-20T22:32:55.837Z,70.90
2023-04-20T22:35:23.659Z,70.90
2023-04-20T22:37:51.376Z,70.90
2023-04-20T22:40:19.155Z,71.00
2023-04-20T22:42:47.069Z,71.00
2023-04-20T22:45:14.823Z,71.10
2023-04-20T22:47:44.073Z,71.00
2023-04-20T22:50:12.727Z,71.00
2023-04-20T22:52:40.857Z,71.00
2023-04-20T22:55:10.841Z,71.00
2023-04-20T22:57:39.245Z,71.10
2023-04-20T23:00:10.580Z,71.20
2023-04-20T23:02:39.239Z,71.10
2023-04-20T23:05:12.725Z,71.10
2023-04-20T23:07:40.618Z,71.20
2023-04-20T23:10:10.791Z,71.20
2023-04-20T23:12:39.101Z,71.30
2023-04-20T23:15:08.108Z,71.30
2023-04-20T23:17:35.887Z,71.30
2023-04-20T23:20:04.486Z,71.30
2023-04-20T23:22:33.615Z,71.30
2023-04-20T23:25:01.306Z,71.30
2023-04-20T23:27:29.106Z,71.20
2023-04-20T23:29:57.009Z,71.20
2023-04-20T23:32:25.883Z,71.20
2023-04-20T23:34:53.669Z,71.10
2023-04-20T23:37:21.490Z,71.10
2023-04-20T23:39:50.622Z,71.10
2023-04-20T23:42:18.335Z,71.10
2023-04-20T23:44:46.123Z,71.00
2023-04-20T23:47:14.471Z,71.00
2023-04-20T23:49:42.485Z,71.00
2023-04-20T23:52:10.345Z,71.00
2023-04-20T23:54:38.160Z,70.90
2023-04-20T23:57:07.274Z,70.90
2023-04-20T23:59:35.193Z,70.90
